Time;durP1;ratioP1;P1;durP2;ratioP2;P2;SDS_P1;SDS_P2;PMS_P1;PMS_P2;Temp;Humidity;BMP_temperature;BMP_pressure;BME280_temperature;BME280_humidity;BME280_pressure;Samples;Min_cycle;Max_cycle;Signal;HPM_P1;HPM_P2
2022/11/16 00:02:12;;;;;;;60.45;12.07;;;;;;;10.14;100.00;93707.63;5065891;28;20170;-87
2022/11/16 00:04:37;;;;;;;162.77;18.00;;;;;;;10.06;100.00;93708.25;5082411;28;20360;-87
2022/11/16 00:07:04;;;;;;;27.20;11.18;;;;;;;10.31;100.00;93702.69;5065972;28;20026;-87
2022/11/16 00:09:30;;;;;;;23.10;11.07;;;;;;;10.38;100.00;93685.88;5082421;28;20024;-87
2022/11/16 00:11:59;;;;;;;23.40;10.45;;;;;;;10.45;100.00;93675.84;5081922;28;20031;-87
2022/11/16 00:14:30;;;;;;;21.05;9.95;;;;;;;10.41;100.00;93685.31;5082267;28;20077;-87
2022/11/16 00:16:56;;;;;;;28.35;11.32;;;;;;;10.30;100.00;93685.41;5082103;28;20044;-87
2022/11/16 00:19:23;;;;;;;27.75;11.10;;;;;;;10.20;100.00;93688.19;5082469;28;20028;-87
2022/11/16 00:21:48;;;;;;;285.63;16.75;;;;;;;10.14;100.00;93678.81;5065429;28;20027;-87
2022/11/16 00:24:15;;;;;;;524.22;28.70;;;;;;;9.83;100.00;93673.97;5081901;28;20036;-87
2022/11/16 00:26:41;;;;;;;20.55;9.38;;;;;;;10.16;100.00;93674.09;5100112;28;20028;-86
2022/11/16 00:29:15;;;;;;;305.85;15.95;;;;;;;10.26;100.00;93673.97;5081927;28;20088;-87
2022/11/16 00:31:41;;;;;;;639.28;31.45;;;;;;;9.96;100.00;93662.81;5081695;28;20047;-87
2022/11/16 00:34:06;;;;;;;367.55;19.67;;;;;;;10.02;100.00;93660.91;5081835;28;20067;-87
2022/11/16 00:36:32;;;;;;;527.78;28.13;;;;;;;9.99;100.00;93658.88;5099485;28;20060;-87
2022/11/16 00:38:57;;;;;;;155.25;11.32;;;;;;;10.11;100.00;93653.97;5081769;28;20020;-87
2022/11/16 00:41:23;;;;;;;94.78;11.68;;;;;;;10.23;100.00;93656.19;5064706;28;20024;-87
2022/11/16 00:43:48;;;;;;;43.50;8.27;;;;;;;10.28;100.00;93647.50;5081681;28;20421;-87
2022/11/16 00:46:13;;;;;;;597.75;33.95;;;;;;;9.95;100.00;93644.75;5064937;28;20024;-87
2022/11/16 00:48:39;;;;;;;18.30;8.13;;;;;;;9.98;100.00;93637.13;5064887;28;20065;-87
2022/11/16 00:51:04;;;;;;;45.28;8.23;;;;;;;10.21;100.00;93634.75;5081409;28;20063;-87
2022/11/16 00:53:30;;;;;;;81.88;10.35;;;;;;;10.24;100.00;93638.63;5081256;28;20425;-87
2022/11/16 00:55:55;;;;;;;25.45;8.82;;;;;;;10.32;100.00;93633.53;5081198;28;20035;-87
2022/11/16 00:58:21;;;;;;;40.33;9.75;;;;;;;10.41;100.00;93632.94;5081425;28;20024;-87
2022/11/16 01:00:46;;;;;;;276.17;18.23;;;;;;;9.95;100.00;93640.31;5064665;28;20024;-87
2022/11/16 01:03:12;;;;;;;25.25;9.63;;;;;;;10.02;100.00;93638.13;5081407;28;20090;-87
2022/11/16 01:05:37;;;;;;;62.50;11.68;;;;;;;10.25;100.00;93635.75;5081399;28;20050;-87
2022/11/16 01:08:03;;;;;;;40.83;10.07;;;;;;;10.24;100.00;93634.19;5271233;22;20122;-89
2022/11/16 01:10:29;;;;;;;409.77;24.90;;;;;;;9.82;100.00;93618.22;5064616;28;20055;-89
2022/11/16 01:12:58;;;;;;;23.85;9.68;;;;;;;10.28;100.00;93616.84;5059283;28;20025;-88
2022/11/16 01:15:25;;;;;;;24.17;9.90;;;;;;;10.41;100.00;93622.47;5044691;28;20443;-92
2022/11/16 01:17:52;;;;;;;399.63;20.27;;;;;;;10.13;100.00;93615.25;5059248;28;20066;-92
2022/11/16 01:20:22;;;;;;;825.10;46.63;;;;;;;10.04;100.00;93615.09;5060717;28;20032;-92
2022/11/16 01:22:47;;;;;;;792.35;49.45;;;;;;;9.72;100.00;93613.13;5064363;28;20110;-92
2022/11/16 01:25:14;;;;;;;67.80;10.32;;;;;;;9.89;100.00;93617.88;5049950;28;20442;-92
2022/11/16 01:27:40;;;;;;;276.25;16.48;;;;;;;9.88;100.00;93606.66;5044813;28;20021;-92
2022/11/16 01:30:07;;;;;;;22.00;7.63;;;;;;;10.22;100.00;93596.25;5044184;28;20024;-92
2022/11/16 01:32:34;;;;;;;283.67;17.67;;;;;;;10.16;100.00;93601.59;5060925;28;20024;-91
2022/11/16 01:34:59;;;;;;;485.90;27.75;;;;;;;9.92;100.00;93585.94;5044480;28;20436;-89
2022/11/16 01:37:25;;;;;;;439.25;25.75;;;;;;;9.76;100.00;93590.56;5060672;28;20024;-90
2022/11/16 01:39:50;;;;;;;159.38;12.65;;;;;;;9.92;100.00;93593.78;5044355;28;20322;-90
2022/11/16 01:42:21;;;;;;;158.80;14.38;;;;;;;9.96;100.00;93583.53;5060317;28;20032;-90
2022/11/16 01:44:46;;;;;;;261.52;15.20;;;;;;;9.85;100.00;93594.13;5060413;28;20348;-89
2022/11/16 01:47:13;;;;;;;33.60;10.23;;;;;;;9.98;100.00;93587.41;5078214;28;20073;-89
2022/11/16 01:49:46;;;;;;;127.43;13.23;;;;;;;9.89;100.00;93586.47;5071379;28;20413;-90
2022/11/16 01:52:15;;;;;;;27.77;9.25;;;;;;;10.16;100.00;93572.78;5043509;28;20021;-88
2022/11/16 01:54:43;;;;;;;106.85;8.98;;;;;;;10.16;100.00;93564.13;5056615;28;20074;-90
2022/11/16 01:57:17;;;;;;;379.83;21.17;;;;;;;9.98;100.00;93550.03;5063758;28;20465;-89
2022/11/16 01:59:45;;;;;;;308.98;17.85;;;;;;;9.88;100.00;93548.28;5063974;28;20186;-89
2022/11/16 02:02:10;;;;;;;45.65;8.60;;;;;;;10.06;100.00;93548.59;5063494;28;20321;-89
2022/11/16 02:04:36;;;;;;;672.33;34.13;;;;;;;10.02;100.00;93551.75;5080432;28;20032;-90
2022/11/16 02:09:52;;;;;;;396.95;21.52;;;;;;;10.24;100.00;93539.16;5098028;28;20027;-89
2022/11/16 02:10:49;;;;;;;989.72;62.25;;;;;;;10.07;100.00;93544.91;5082677;28;20460;-90
2022/11/16 02:13:17;;;;;;;123.05;11.57;;;;;;;10.06;100.00;93538.91;5080104;28;20433;-88
2022/11/16 02:16:00;;;;;;;98.68;11.27;;;;;;;10.21;100.00;93543.16;5080079;28;20425;-91
2022/11/16 02:18:52;;;;;;;248.73;16.40;;;;;;;10.25;100.00;93546.75;5079807;28;20440;-92
2022/11/16 02:22:10;;;;;;;695.47;40.88;;;;;;;9.75;100.00;93532.25;5079092;28;20032;-91
2022/11/16 02:24:42;;;;;;;82.47;9.88;;;;;;;10.07;100.00;93527.38;5014388;28;20435;-92
2022/11/16 02:27:33;;;;;;;198.25;13.93;;;;;;;10.04;100.00;93522.72;5079646;28;20406;-92
2022/11/16 02:29:58;;;;;;;95.07;10.32;;;;;;;9.85;100.00;93518.25;5097685;28;20032;-89
2022/11/16 02:32:23;;;;;;;560.58;29.33;;;;;;;9.63;100.00;93510.97;5079589;28;20077;-91
2022/11/16 02:35:09;;;;;;;496.02;26.65;;;;;;;9.69;100.00;93519.53;5079909;28;20031;-90
2022/11/16 02:37:37;;;;;;;89.78;10.60;;;;;;;9.89;100.00;93508.00;5062874;28;20063;-91
2022/11/16 02:40:06;;;;;;;165.60;11.88;;;;;;;9.82;100.00;93499.72;5062946;28;20061;-92
2022/11/16 02:42:35;;;;;;;42.78;9.10;;;;;;;9.96;100.00;93503.19;5062715;28;20383;-91
2022/11/16 02:45:02;;;;;;;192.32;15.60;;;;;;;9.78;100.00;93489.06;5062825;28;20071;-92
2022/11/16 02:47:30;;;;;;;144.63;12.18;;;;;;;9.92;100.00;93489.13;5079238;28;20028;-92
2022/11/16 02:50:09;;;;;;;140.52;15.80;;;;;;;10.19;100.00;93487.69;5079900;28;20119;-91
2022/11/16 02:52:36;;;;;;;130.52;11.77;;;;;;;10.25;100.00;93483.13;5079414;28;20028;-91
2022/11/16 02:55:01;;;;;;;383.88;26.15;;;;;;;10.04;100.00;93479.00;5062679;28;20052;-91
2022/11/16 02:58:04;;;;;;;556.15;28.85;;;;;;;9.96;100.00;93486.69;5079284;28;20381;-91
2022/11/16 03:00:35;;;;;;;422.10;25.00;;;;;;;10.00;100.00;93479.84;4978928;28;20089;-92
2022/11/16 03:03:06;;;;;;;333.65;21.17;;;;;;;9.78;100.00;93472.59;5063347;28;20085;-89
2022/11/16 03:05:37;;;;;;;110.35;13.75;;;;;;;9.85;100.00;93470.38;5097394;28;20027;-89
2022/11/16 03:08:09;;;;;;;222.95;18.35;;;;;;;9.91;100.00;93474.50;5062568;28;20076;-91
2022/11/16 03:13:20;;;;;;;80.60;11.23;;;;;;;9.94;100.00;93455.59;5081766;28;20538;-91
2022/11/16 03:15:47;;;;;;;21.17;8.23;;;;;;;10.06;100.00;93451.78;5078940;28;20055;-91
2022/11/16 03:18:13;;;;;;;557.58;33.45;;;;;;;9.99;100.00;93445.03;5096906;28;20020;-89
2022/11/16 03:20:39;;;;;;;164.40;14.20;;;;;;;10.11;100.00;93439.34;5059480;28;20420;-92
2022/11/16 03:23:08;;;;;;;90.90;12.35;;;;;;;10.17;100.00;93448.69;5042429;28;20032;-91
2022/11/16 03:25:41;;;;;;;16.80;9.63;;;;;;;10.31;100.00;93445.34;5059220;28;20119;-91
2022/11/16 03:28:12;;;;;;;553.72;29.05;;;;;;;9.95;100.00;93445.91;5059279;28;20025;-92
2022/11/16 03:30:42;;;;;;;35.28;10.52;;;;;;;10.21;100.00;93441.06;5042147;28;20034;-91
2022/11/16 03:33:23;;;;;;;157.27;16.25;;;;;;;10.04;100.00;93441.56;5058871;28;20340;-91
2022/11/16 03:36:34;;;;;;;142.52;16.05;;;;;;;10.12;100.00;93440.16;5046461;28;20034;-91
2022/11/16 03:39:14;;;;;;;445.98;28.35;;;;;;;9.75;100.00;93435.47;5054083;28;20135;-92
2022/11/16 03:41:51;;;;;;;317.52;20.80;;;;;;;9.45;100.00;93432.22;5059671;28;20039;-92
2022/11/16 03:44:18;;;;;;;26.45;11.30;;;;;;;9.86;100.00;93417.78;5067613;28;20024;-92
2022/11/16 03:46:44;;;;;;;516.53;31.30;;;;;;;9.60;100.00;93422.59;5066148;28;20116;-92
2022/11/16 03:49:10;;;;;;;32.72;14.57;;;;;;;9.77;100.00;93411.63;5082769;28;20509;-90
2022/11/16 03:51:35;;;;;;;59.22;15.55;;;;;;;9.93;100.00;93406.94;5065561;28;20024;-90
2022/11/16 03:54:01;;;;;;;207.98;20.90;;;;;;;9.76;100.00;93410.88;5065874;28;20031;-90
2022/11/16 03:56:26;;;;;;;360.73;25.23;;;;;;;9.50;100.00;93405.22;5056056;28;20487;-90
2022/11/16 03:59:03;;;;;;;30.95;15.05;;;;;;;9.96;100.00;93403.75;5070417;28;20115;-91
2022/11/16 04:01:29;;;;;;;27.33;13.05;;;;;;;9.88;100.00;93396.56;5051967;28;20367;-90
2022/11/16 04:03:54;;;;;;;311.52;24.08;;;;;;;9.68;100.00;93390.59;5077438;28;20085;-91
2022/11/16 04:26:00;;;;;;;103.25;15.48;;;;;;;9.44;100.00;93383.59;5079729;28;20031;-91
2022/11/16 04:28:30;;;;;;;427.05;25.70;;;;;;;9.67;100.00;93393.47;5045301;28;20024;-90
2022/11/16 04:39:26;;;;;;;464.92;26.83;;;;;;;9.62;100.00;93395.13;5005220;28;20064;-91
2022/11/16 04:47:20;;;;;;;228.48;17.98;;;;;;;9.28;100.00;93377.84;5064217;28;20082;-90
2022/11/16 04:49:45;;;;;;;858.97;55.97;;;;;;;9.31;100.00;93376.47;5079163;28;20064;-91
2022/11/16 04:52:10;;;;;;;587.33;34.00;;;;;;;9.40;100.00;93369.56;5051056;28;20082;-90
2022/11/16 04:54:36;;;;;;;191.07;14.45;;;;;;;9.51;100.00;93380.63;5044893;28;20102;-91
2022/11/16 04:57:01;;;;;;;176.35;14.93;;;;;;;9.33;100.00;93361.31;5061396;28;20036;-90
2022/11/16 04:59:27;;;;;;;593.08;37.63;;;;;;;9.18;100.00;93375.34;5044832;28;20036;-90
2022/11/16 05:02:07;;;;;;;309.20;20.13;;;;;;;9.26;100.00;93366.88;5044486;28;20040;-93
2022/11/16 05:04:37;;;;;;;37.00;12.80;;;;;;;9.40;100.00;93368.78;5046940;28;20032;-92
2022/11/16 05:07:02;;;;;;;746.40;48.15;;;;;;;9.19;100.00;93371.69;5061170;28;20027;-91
2022/11/16 05:09:28;;;;;;;731.42;47.05;;;;;;;9.24;100.00;93366.38;5044726;28;20126;-92
2022/11/16 05:11:53;;;;;;;287.23;23.23;;;;;;;9.37;100.00;93362.28;5044554;28;20463;-92
2022/11/16 05:14:19;;;;;;;504.83;29.42;;;;;;;9.16;100.00;93359.94;5044767;28;20443;-91
2022/11/16 05:16:44;;;;;;;110.55;15.65;;;;;;;9.42;100.00;93369.28;5060857;28;20029;-91
2022/11/16 05:21:53;;;;;;;;;;;;;;;9.55;100.00;93371.19;5063695;28;20114;-91
2022/11/16 05:24:34;;;;;;;88.25;14.80;;;;;;;9.53;100.00;93349.75;5044438;28;19912;-91
2022/11/16 05:27:01;;;;;;;87.22;12.75;;;;;;;9.75;100.00;93351.78;5063135;28;20107;-91
2022/11/16 05:29:27;;;;;;;573.28;31.70;;;;;;;9.74;100.00;93367.75;5044603;28;20425;-91
2022/11/16 05:31:52;;;;;;;204.80;15.48;;;;;;;9.52;100.00;93357.88;5044089;28;20032;-92
2022/11/16 05:34:17;;;;;;;26.33;11.93;;;;;;;9.70;100.00;93361.53;5060479;28;20085;-91
2022/11/16 05:36:43;;;;;;;26.60;10.55;;;;;;;9.87;100.00;93379.31;5060552;28;20028;-90
2022/11/16 05:39:18;;;;;;;27.40;12.45;;;;;;;9.98;100.00;93359.75;5044158;28;20039;-90
2022/11/16 05:41:44;;;;;;;37.63;13.05;;;;;;;9.62;100.00;93368.19;5067147;28;20036;-90
2022/11/16 05:44:09;;;;;;;39.72;14.40;;;;;;;9.87;100.00;93363.59;5043917;28;20032;-91
2022/11/16 05:46:35;;;;;;;35.55;14.13;;;;;;;9.76;100.00;93368.22;5079600;28;20451;-91
2022/11/16 05:49:00;;;;;;;38.65;13.85;;;;;;;9.48;100.00;93379.38;5080241;28;20032;-92
2022/11/16 05:51:26;;;;;;;31.73;12.80;;;;;;;9.64;100.00;93373.91;5079867;28;20109;-92
2022/11/16 05:53:51;;;;;;;81.88;16.63;;;;;;;9.67;100.00;93377.78;5080180;28;20028;-89
2022/11/16 05:56:17;;;;;;;88.25;17.88;;;;;;;9.23;100.00;93366.66;5062980;28;20032;-90
2022/11/16 05:58:43;;;;;;;102.15;18.77;;;;;;;9.29;100.00;93382.00;5048917;28;20036;-89
2022/11/16 06:01:08;;;;;;;51.25;19.00;;;;;;;9.49;100.00;93377.53;5043328;28;20089;-90
2022/11/16 06:03:35;;;;;;;61.72;19.45;;;;;;;9.30;100.00;93386.16;5076408;28;20028;-90
2022/11/16 06:06:02;;;;;;;47.35;17.08;;;;;;;9.26;100.00;93387.00;5075817;28;20020;-90
2022/11/16 06:08:28;;;;;;;370.10;28.15;;;;;;;9.09;100.00;93383.03;5059966;28;20036;-89
2022/11/16 06:10:53;;;;;;;77.65;19.23;;;;;;;9.26;100.00;93371.31;5074125;28;20031;-90
2022/11/16 06:13:19;;;;;;;46.50;17.65;;;;;;;9.63;100.00;93374.97;5063247;28;20027;-90
2022/11/16 06:15:45;;;;;;;116.57;41.03;;;;;;;9.54;100.00;93382.69;5079650;28;20038;-90
2022/11/16 06:18:10;;;;;;;54.63;20.42;;;;;;;9.70;100.00;93372.00;5079469;28;20024;-90
2022/11/16 06:20:37;;;;;;;713.15;420.63;;;;;;;9.45;100.00;93372.09;5062687;28;20089;-90
2022/11/16 06:23:03;;;;;;;355.52;143.55;;;;;;;9.45;100.00;93369.47;5079551;28;20504;-90
2022/11/16 06:25:29;;;;;;;61.28;25.77;;;;;;;9.64;100.00;93375.75;5063108;28;20127;-90
2022/11/16 06:27:56;;;;;;;501.98;30.70;;;;;;;9.46;100.00;93371.00;5079608;28;20415;-90
2022/11/16 06:30:22;;;;;;;145.10;23.73;;;;;;;9.27;100.00;93375.50;5078950;28;20098;-89
2022/11/16 06:32:47;;;;;;;126.57;25.50;;;;;;;9.44;100.00;93357.47;5097765;28;20038;-89
2022/11/16 06:35:13;;;;;;;132.02;24.13;;;;;;;9.58;100.00;93359.34;5079639;28;20107;-89
2022/11/16 06:37:38;;;;;;;72.78;20.80;;;;;;;9.04;100.00;93362.97;5079426;28;20028;-90
2022/11/16 06:40:04;;;;;;;90.30;20.55;;;;;;;9.34;100.00;93384.53;5062719;28;20036;-88
2022/11/16 06:42:30;;;;;;;70.40;17.67;;;;;;;9.39;100.00;93380.28;5062688;28;20427;-88
2022/11/16 06:44:55;;;;;;;65.22;19.90;;;;;;;9.41;100.00;93362.50;5063002;28;20151;-89
2022/11/16 06:47:21;;;;;;;67.97;18.77;;;;;;;9.47;100.00;93356.91;5062923;28;20370;-89
2022/11/16 06:49:46;;;;;;;66.13;19.27;;;;;;;9.30;100.00;93375.72;5063058;28;20035;-88
2022/11/16 06:52:12;;;;;;;117.50;19.10;;;;;;;9.59;100.00;93385.22;5096964;28;20032;-88
2022/11/16 06:54:37;;;;;;;65.78;16.90;;;;;;;9.28;100.00;93390.09;5062884;28;20032;-89
2022/11/16 06:57:02;;;;;;;83.35;20.98;;;;;;;9.08;100.00;93380.69;5062782;28;20332;-89
2022/11/16 06:59:31;;;;;;;49.17;16.27;;;;;;;9.50;100.00;93375.69;5079231;28;20036;-89
2022/11/16 07:01:56;;;;;;;45.67;16.98;;;;;;;9.50;100.00;93379.06;5058952;28;20029;-89
2022/11/16 07:04:22;;;;;;;60.83;19.05;;;;;;;9.72;100.00;93377.72;5059450;28;20047;-89
2022/11/16 07:06:47;;;;;;;65.32;20.40;;;;;;;9.87;100.00;93364.41;5059388;28;20115;-89
2022/11/16 07:09:13;;;;;;;162.00;21.67;;;;;;;9.92;100.00;93363.53;5058801;28;20349;-89
2022/11/16 07:11:39;;;;;;;52.00;18.17;;;;;;;9.83;100.00;93371.28;5042048;28;20056;-88
2022/11/16 07:14:04;;;;;;;59.65;18.52;;;;;;;9.62;100.00;93376.03;5059232;28;20034;-89
2022/11/16 07:16:30;;;;;;;54.53;18.35;;;;;;;9.80;100.00;93376.28;5058993;28;20032;-89
2022/11/16 07:18:57;;;;;;;97.38;22.65;;;;;;;9.36;100.00;93373.00;5059071;28;20340;-89
2022/11/16 07:21:24;;;;;;;102.85;18.77;;;;;;;9.23;100.00;93374.50;5042435;28;20425;-90
2022/11/16 07:23:49;;;;;;;57.17;18.00;;;;;;;9.62;100.00;93365.59;5075628;28;20417;-89
2022/11/16 07:26:14;;;;;;;58.17;17.35;;;;;;;9.76;100.00;93370.84;5059000;28;20039;-89
2022/11/16 07:28:45;;;;;;;73.90;18.63;;;;;;;9.47;100.00;93364.75;5058968;28;20036;-89
2022/11/16 07:31:12;;;;;;;63.97;17.92;;;;;;;9.44;100.00;93357.47;5058481;28;20032;-89
2022/11/16 07:33:37;;;;;;;39.70;15.98;;;;;;;9.85;100.00;93360.50;5058887;28;20035;-90
2022/11/16 07:36:11;;;;;;;51.42;17.95;;;;;;;9.74;100.00;93352.81;5058533;28;20103;-89
2022/11/16 07:38:37;;;;;;;45.60;16.85;;;;;;;9.82;100.00;93354.00;5058895;28;20052;-92
2022/11/16 07:41:05;;;;;;;48.90;17.52;;;;;;;9.87;100.00;93351.31;5042519;28;20055;-93
2022/11/16 07:43:33;;;;;;;45.35;15.85;;;;;;;10.30;100.00;93339.06;5059157;28;20032;-93
2022/11/16 07:46:10;;;;;;;46.58;16.02;;;;;;;10.57;100.00;93337.56;5075731;28;20086;-92
2022/11/16 07:48:59;;;;;;;41.92;15.55;;;;;;;10.28;100.00;93344.59;5062428;28;20028;-92
2022/11/16 07:51:25;;;;;;;212.02;18.83;;;;;;;10.07;100.00;93335.56;5079068;28;20031;-92
2022/11/16 07:53:56;;;;;;;37.55;14.25;;;;;;;10.12;100.00;93345.94;5062360;28;20336;-92
2022/11/16 07:56:23;;;;;;;31.38;13.20;;;;;;;9.90;100.00;93337.66;5079163;28;20108;-93
2022/11/16 07:58:48;;;;;;;56.47;14.25;;;;;;;9.90;100.00;93335.03;5062372;28;20030;-92
2022/11/16 08:01:15;;;;;;;34.80;14.00;;;;;;;9.90;100.00;93342.13;5062132;28;20020;-93
2022/11/16 08:03:42;;;;;;;31.75;13.52;;;;;;;10.40;100.00;93333.66;5062353;28;20035;-92
2022/11/16 08:06:14;;;;;;;41.25;14.60;;;;;;;10.65;100.00;93328.22;5062153;28;20028;-93
2022/11/16 08:08:39;;;;;;;28.23;11.48;;;;;;;10.08;100.00;93324.03;5078440;28;20105;-92
2022/11/16 08:11:08;;;;;;;32.00;12.25;;;;;;;10.50;100.00;93322.22;5061717;28;20028;-92
2022/11/16 08:13:35;;;;;;;27.63;12.88;;;;;;;10.77;100.00;93339.00;5062321;28;20396;-92
2022/11/16 08:16:01;;;;;;;27.77;10.98;;;;;;;10.85;100.00;93348.00;5078395;28;20027;-92
2022/11/16 08:18:28;;;;;;;25.08;10.07;;;;;;;10.17;100.00;93343.22;5061877;28;20024;-91
2022/11/16 08:20:53;;;;;;;19.85;9.73;;;;;;;10.58;100.00;93345.09;5071492;28;20029;-91
2022/11/16 08:23:18;;;;;;;21.83;9.80;;;;;;;11.18;100.00;93340.72;5045655;28;20337;-92
2022/11/16 08:25:44;;;;;;;17.92;8.90;;;;;;;11.51;100.00;93331.88;5078957;28;20028;-91
2022/11/16 08:28:09;;;;;;;17.42;8.43;;;;;;;11.71;100.00;93333.25;5045496;28;20027;-92
2022/11/16 08:30:38;;;;;;;18.95;8.55;;;;;;;11.69;100.00;93324.91;5045083;28;20034;-91
2022/11/16 08:33:03;;;;;;;13.88;7.60;;;;;;;11.54;100.00;93327.91;5045490;28;20020;-91
2022/11/16 08:35:29;;;;;;;19.05;9.48;;;;;;;11.60;100.00;93316.97;5045282;28;20020;-91
2022/11/16 08:37:54;;;;;;;16.85;8.60;;;;;;;12.29;100.00;93306.41;5045251;28;20021;-91
2022/11/16 08:40:19;;;;;;;17.48;8.15;;;;;;;12.72;100.00;93302.31;5057497;28;20454;-91
2022/11/16 08:42:45;;;;;;;26.40;12.02;;;;;;;13.39;100.00;93296.94;5065106;28;20052;-91
2022/11/16 08:45:10;;;;;;;25.88;12.73;;;;;;;13.17;100.00;93306.56;5065320;28;20370;-91
2022/11/16 08:47:36;;;;;;;25.55;11.85;;;;;;;13.40;100.00;93298.50;5064810;28;20088;-92
2022/11/16 08:50:01;;;;;;;61.15;13.73;;;;;;;12.70;100.00;93299.25;5081655;28;20024;-94
2022/11/16 08:52:27;;;;;;;593.78;34.08;;;;;;;11.94;100.00;93288.63;5065165;28;20027;-91
2022/11/16 08:54:52;;;;;;;57.90;16.42;;;;;;;12.51;100.00;93279.28;5056828;28;20031;-91
2022/11/16 08:57:18;;;;;;;114.60;18.10;;;;;;;12.64;100.00;93287.34;5061412;28;20416;-92
2022/11/16 09:00:06;;;;;;;1111.47;59.38;;;;;;;11.62;100.00;93285.22;5061553;28;20314;-92
2022/11/16 09:02:31;;;;;;;301.35;25.13;;;;;;;10.78;100.00;93279.50;5079113;28;20022;-91
2022/11/16 09:04:57;;;;;;;912.25;54.63;;;;;;;10.74;100.00;93289.78;5079108;28;20129;-92
2022/11/16 09:07:22;;;;;;;928.63;46.95;;;;;;;10.54;100.00;93289.13;5044747;28;20032;-91
2022/11/16 09:09:48;;;;;;;661.78;44.63;;;;;;;10.70;100.00;93294.84;5077957;28;20078;-92
2022/11/16 09:12:13;;;;;;;945.72;75.20;;;;;;;10.87;100.00;93286.34;5060845;28;20075;-91
2022/11/16 09:14:38;;;;;;;953.53;59.83;;;;;;;10.67;100.00;93284.19;5078834;28;20455;-91
2022/11/16 09:17:04;;;;;;;60.05;19.67;;;;;;;11.36;100.00;93301.56;5078770;28;20341;-91
2022/11/16 09:19:29;;;;;;;561.28;39.22;;;;;;;11.01;100.00;93312.53;5061028;28;20033;-91
2022/11/16 09:21:55;;;;;;;46.28;19.77;;;;;;;11.78;100.00;93313.69;5060657;28;20029;-92
2022/11/16 09:24:20;;;;;;;313.85;28.15;;;;;;;11.07;100.00;93328.16;5044388;28;20036;-92
2022/11/16 09:26:46;;;;;;;41.05;18.77;;;;;;;11.51;100.00;93328.50;5060786;28;20028;-92
2022/11/16 09:29:13;;;;;;;58.65;19.35;;;;;;;11.40;100.00;93336.59;5061069;28;20028;-92
2022/11/16 09:31:39;;;;;;;122.43;22.50;;;;;;;11.48;100.00;93339.56;5076992;28;20032;-91
2022/11/16 09:34:05;;;;;;;324.40;27.13;;;;;;;11.22;100.00;93346.16;5060737;28;20024;-91
2022/11/16 09:36:31;;;;;;;869.25;47.60;;;;;;;10.29;100.00;93334.91;5044135;28;20443;-91
2022/11/16 09:38:57;;;;;;;50.38;20.92;;;;;;;10.78;100.00;93345.78;5044034;28;20074;-91
2022/11/16 09:41:46;;;;;;;400.13;32.78;;;;;;;10.99;100.00;93340.91;5043748;28;20036;-92
2022/11/16 09:44:56;;;;;;;153.18;23.50;;;;;;;10.82;100.00;93343.31;5060714;28;20077;-92
2022/11/16 09:47:26;;;;;;;40.35;17.48;;;;;;;10.66;100.00;93329.78;5023206;28;20072;-92
2022/11/16 09:49:59;;;;;;;29.60;12.15;;;;;;;10.88;100.00;93324.59;5060662;28;20024;-92
2022/11/16 09:52:30;;;;;;;50.80;19.85;;;;;;;11.26;100.00;93331.41;5046252;28;20017;-92
2022/11/16 09:54:57;;;;;;;53.53;20.88;;;;;;;11.22;100.00;93327.06;5078180;28;20122;-92
2022/11/16 09:57:27;;;;;;;104.78;39.60;;;;;;;11.44;100.00;93331.53;5052803;28;20016;-93
2022/11/16 09:59:59;;;;;;;181.35;24.20;;;;;;;11.97;100.00;93319.50;5080375;28;20340;-92
2022/11/16 10:02:47;;;;;;;86.03;25.03;;;;;;;12.21;100.00;93297.41;5063476;28;20134;-92
2022/11/16 10:05:27;;;;;;;38.25;18.92;;;;;;;12.37;100.00;93316.16;5080185;28;20268;-91
2022/11/16 10:08:09;;;;;;;36.65;18.08;;;;;;;11.49;100.00;93315.66;5063906;28;20034;-92
2022/11/16 10:10:41;;;;;;;34.67;16.92;;;;;;;12.29;100.00;93311.66;5079729;28;20019;-92
2022/11/16 10:13:30;;;;;;;27.75;15.07;;;;;;;12.84;100.00;93297.25;5079977;28;20093;-92
2022/11/16 10:16:05;;;;;;;28.42;13.90;;;;;;;13.01;100.00;93286.00;5080007;28;20035;-91
2022/11/16 10:18:33;;;;;;;27.60;14.73;;;;;;;12.21;100.00;93289.53;5080430;28;20126;-92
2022/11/16 10:21:21;;;;;;;25.92;14.27;;;;;;;12.88;100.00;93289.53;5097635;28;20101;-92
2022/11/16 10:23:52;;;;;;;29.20;15.52;;;;;;;12.40;100.00;93283.25;5079697;28;20016;-92
2022/11/16 10:26:23;;;;;;;28.58;15.27;;;;;;;12.23;100.00;93282.13;5097878;28;20028;-92
2022/11/16 10:29:10;;;;;;;21.17;11.10;;;;;;;12.58;100.00;93266.44;5088176;28;20031;-92
2022/11/16 10:31:57;;;;;;;27.30;14.27;;;;;;;13.88;100.00;93259.88;5069681;28;20028;-92
2022/11/16 10:34:25;;;;;;;29.38;15.23;;;;;;;14.04;100.00;93267.25;5079807;28;20375;-93
2022/11/16 10:36:54;;;;;;;28.45;14.68;;;;;;;14.60;100.00;93256.63;5048897;28;20029;-91
2022/11/16 10:39:19;;;;;;;154.93;74.22;;;;;;;14.79;100.00;93250.97;5077183;28;20027;-92
2022/11/16 10:41:52;;;;;;;173.50;71.68;;;;;;;15.18;100.00;93242.91;5079597;28;20428;-92
2022/11/16 10:44:36;;;;;;;22.25;13.32;;;;;;;14.70;100.00;93247.56;5059592;28;20085;-91
2022/11/16 10:47:04;;;;;;;35.13;19.38;;;;;;;13.61;100.00;93251.28;5059348;28;20024;-90
2022/11/16 10:49:41;;;;;;;24.38;13.45;;;;;;;13.28;100.00;93249.94;5059764;28;20113;-91
2022/11/16 10:52:06;;;;;;;71.15;37.30;;;;;;;14.40;100.00;93239.69;5076879;28;20024;-93
2022/11/16 10:54:32;;;;;;;42.97;24.10;;;;;;;14.44;100.00;93231.94;5059493;28;20112;-90
2022/11/16 10:57:12;;;;;;;24.45;12.50;;;;;;;14.02;100.00;93235.22;5042868;28;20017;-90
2022/11/16 10:59:57;;;;;;;30.60;16.63;;;;;;;13.14;100.00;93226.44;5060269;28;20441;-89
2022/11/16 11:02:33;;;;;;;112.20;17.25;;;;;;;12.95;100.00;93218.09;5077010;28;20023;-92
2022/11/16 11:05:13;;;;;;;33.15;14.73;;;;;;;12.42;100.00;93210.16;5042835;28;20024;-93
2022/11/16 11:07:39;;;;;;;28.20;14.40;;;;;;;13.21;100.00;93206.78;5076857;28;20436;-91
2022/11/16 11:10:25;;;;;;;29.20;15.02;;;;;;;13.51;100.00;93201.66;5059062;28;20082;-91
2022/11/16 11:13:09;;;;;;;29.73;14.52;;;;;;;14.22;100.00;93197.63;5058882;28;20149;-92
2022/11/16 11:15:34;;;;;;;;;;;;;;;14.57;100.00;93199.28;5077222;28;20228;-92
2022/11/16 11:18:22;;;;;;;39.58;20.05;;;;;;;14.58;100.00;93195.56;5042696;28;19959;-92
2022/11/16 11:20:52;;;;;;;23.67;13.43;;;;;;;13.46;100.00;93186.00;5076338;28;20040;-91
2022/11/16 11:23:23;;;;;;;27.50;14.50;;;;;;;13.98;100.00;93196.34;5058775;28;20040;-91
2022/11/16 11:25:58;;;;;;;28.27;14.35;;;;;;;13.50;100.00;93195.59;5058836;28;20070;-91
2022/11/16 11:28:30;;;;;;;24.25;12.63;;;;;;;13.68;100.00;93198.16;5058847;28;20023;-91
2022/11/16 11:30:59;;;;;;;27.75;14.10;;;;;;;13.17;100.00;93190.84;5058386;28;20458;-92
2022/11/16 11:33:29;;;;;;;28.08;14.45;;;;;;;13.80;100.00;93187.00;5076553;28;20032;-91
2022/11/16 11:35:59;;;;;;;36.10;15.63;;;;;;;12.40;100.00;93183.44;5058768;28;20028;-91
2022/11/16 11:38:25;;;;;;;29.23;15.82;;;;;;;12.60;100.00;93176.81;5058544;28;20429;-91
2022/11/16 11:41:03;;;;;;;30.25;15.98;;;;;;;13.25;100.00;93169.00;5041820;28;20032;-91
2022/11/16 11:43:30;;;;;;;42.72;23.35;;;;;;;13.66;100.00;93163.50;5059385;28;20025;-91
2022/11/16 11:46:11;;;;;;;41.28;23.17;;;;;;;13.69;100.00;93163.66;5058729;28;20059;-91
2022/11/16 11:48:48;;;;;;;29.55;15.55;;;;;;;13.55;100.00;93148.06;5058642;28;20016;-91
2022/11/16 11:51:23;;;;;;;47.28;27.92;;;;;;;13.65;100.00;93146.94;5058210;28;20025;-91
2022/11/16 11:53:57;;;;;;;31.85;14.98;;;;;;;13.27;100.00;93150.28;5058642;28;20044;-92
2022/11/16 11:56:24;;;;;;;23.73;12.98;;;;;;;12.91;100.00;93148.78;5061929;28;20024;-91
2022/11/16 11:58:50;;;;;;;71.63;38.95;;;;;;;13.42;100.00;93144.53;5062404;28;20420;-90
2022/11/16 12:01:40;;;;;;;29.25;14.77;;;;;;;13.12;100.00;93147.06;5078682;28;20429;-90
2022/11/16 12:04:43;;;;;;;34.65;17.90;;;;;;;12.63;100.00;93141.28;5062218;28;20318;-90